Great Yeldham, United Kingdom
Current Conditions -  °F | °C
As of 6:20 PM on Thursday 27 Nov 2014 (Local Time) from EGSS Reporting Station
Haze Haze  
Wind Chill: 50°   Ceiling: 600
Heat Index: 50°   Visibility: 2.8mi
Dew Point: 50°   Wind: 9mph
Humidity: 100%   Direction: 120°ESE
Pressure: 29.59"   Gusts: NA
Location:  52.01°N, 0.57°E
Report Text: EGSS 271820Z 12008KT 4600 BR SCT003 BKN006 10/10 Q1002
Loading
Personal Weather Stations






























Interactive Weather Map New forecast layout! Learn more

10-Day Weather Forecast

Advertisements
Track Severe Weather on mobile